King Philippos — 9HA3023 — position and weather

sailwx.info

Track history (hours):
 
Tides and Currents Weather Stations Pressure Air Temp Water Temp Dewpoint Dewpoint Depression Visibility Wind Speed Wind Dir Waves Ship Positions

King Philippos

Last reported at 2014-Nov-25 10:12 UTC. Time now 2014-Nov-27 09:15 UTC.
Position N 35°60' W 005°12'.

Length 250 m; draft 12.7 m.

Type: Tanker. MMSI: 229046000.

Date/timePositionNaut miles runAvg speedWind from/ knotsBaromVisibWave heightAir tempDewpointWater temp
2014-Nov-25 10:12N 35°60' W 005°12'1116.1
2014-Nov-25 09:33N 35°58' W 005°25'15812.8
2014-Nov-24 21:12N 36°22' W 008°39'  
2014-Nov-21 12:09N 50°03' W 002°35'1313.4
2014-Nov-21 11:13N 50°06' W 002°16'812.8
2014-Nov-21 10:33N 50°09' W 002°03'2611.5
2014-Nov-21 08:16N 50°16' W 001°23'5610.9
2014-Nov-21 03:09N 50°31' E 000°01'1013.0
2014-Nov-21 02:23N 50°33' E 000°16'1113.1
2014-Nov-21 01:33N 50°35' E 000°33'1313.1
2014-Nov-21 00:33N 50°43' E 000°49'1312.7
2014-Nov-20 23:33N 50°51' E 001°05'1111.4
2014-Nov-20 22:33N 50°59' E 001°18'1111.0
2014-Nov-20 21:33N 51°06' E 001°31'1212.1
2014-Nov-20 20:33N 51°14' E 001°46'1312.8
2014-Nov-20 19:33N 51°25' E 001°55'1313.0
2014-Nov-20 18:32N 51°35' E 002°09'  
Track history (hours):
 
Tides and Currents Weather Stations Pressure Air Temp Water Temp Dewpoint Dewpoint Depression Visibility Wind Speed Wind Dir Waves Ship Positions

King Philippos

Last reported at 2014-Nov-25 10:12 UTC. Time now 2014-Nov-27 09:15 UTC.
Position N 35°60' W 005°12'.

Length 250 m; draft 12.7 m.

Type: Tanker. MMSI: 229046000.

Date/timePositionNaut miles runAvg speedWind from/ knotsBaromVisibWave heightAir tempDewpointWater temp
2014-Nov-25 10:12N 35°60' W 005°12'1116.1
2014-Nov-25 09:33N 35°58' W 005°25'15812.8
2014-Nov-24 21:12N 36°22' W 008°39'  
2014-Nov-21 12:09N 50°03' W 002°35'1313.4
2014-Nov-21 11:13N 50°06' W 002°16'812.8
2014-Nov-21 10:33N 50°09' W 002°03'2611.5
2014-Nov-21 08:16N 50°16' W 001°23'5610.9
2014-Nov-21 03:09N 50°31' E 000°01'1013.0
2014-Nov-21 02:23N 50°33' E 000°16'1113.1
2014-Nov-21 01:33N 50°35' E 000°33'1313.1
2014-Nov-21 00:33N 50°43' E 000°49'1312.7
2014-Nov-20 23:33N 50°51' E 001°05'1111.4
2014-Nov-20 22:33N 50°59' E 001°18'1111.0
2014-Nov-20 21:33N 51°06' E 001°31'1212.1
2014-Nov-20 20:33N 51°14' E 001°46'1312.8
2014-Nov-20 19:33N 51°25' E 001°55'1313.0
2014-Nov-20 18:32N 51°35' E 002°09'  

Dump ship's entire track history